ADDS METAR Data INFO
IDs: Format: Raw Decoded Include TAF

Data at: 1515 UTC 21 Feb 2018

KRST 201454Z 30006KT 10SM OVC009 M06/M07 A2982 RMK AO2 UPB19E26 SLP118 P0000 60000 I3000 T10611072 51017
KRST 211354Z 28010KT 10SM CLR M16/M18 A3054 RMK AO2 SLP374 T11561178
KRST 211254Z 28007KT 10SM CLR M16/M17 A3051 RMK AO2 SLP364 T11561172
KRST 201504Z 29007KT 10SM OVC010 M06/M07 A2983 RMK AO2 T10611072
KRST 201454Z 30006KT 10SM OVC009 M06/M07 A2982 RMK AO2 UPB19E26 SLP118 P0000 60000 I3000 T10611072 51017
KRST 201354Z 32011KT 10SM OVC008 M06/M07 A2981 RMK AO2 UPB13E24FZRAE01 CIG 006V011 SLP114 P0000 I1000 T10611067
KRST 201307Z 30013KT 10SM OVC005 M06/M06 A2981 RMK AO2 FZRAE01 P0000 I1000 T10561061
KRST 201254Z 31012KT 10SM -FZRA OVC005 M05/M06 A2979 RMK AO2 UPB12E13FZRAE12B14 SLP108 P0000 I1000 T10501056
KRST 201154Z 32008KT 8SM -FZRA OVC004 M04/M04 A2977 RMK AO2 UPB11E34FZRAB34 SLP099 P0000 60012 70021 I1001 I6006 T10391039 11022 21044 50001
KRST 201139Z 32006KT 6SM FZRA BR OVC005 M03/M04 A2978 RMK AO2 UPB11E34FZRAB34 P0000 I1001 T10331039
KRST 201130Z 31006KT 9SM UP OVC005 M03/M04 A2979 RMK AO2 UPB11 P0000 T10331039
KRST 201054Z 29007KT 8SM OVC004 M03/M04 A2980 RMK AO2 UPE48 SLP109 P0000 T10331039
KRST 200954Z AUTO 00000KT 10SM UP OVC006 M02/M03 A2977 RMK AO2 UPB47FZRAE47 SLP097 P0006 I1003 T10221028
KRST 200932Z AUTO 05006KT 10SM -FZRA OVC005 M03/M03 A2974 RMK AO2 P0006 I1003 T10281028
KRST 200921Z AUTO 06007KT 7SM -FZRA OVC004 M03/M03 A2974 RMK AO2 CIG 003V007 P0006 I1003 T10281028
KRST 200907Z AUTO 06011KT 3SM FZRA BR OVC004 M03/M03 A2971 RMK AO2 P0003 I1001 T10281028
KRST 200854Z AUTO 08009KT 4SM -FZRA BR OVC002 M03/M03 A2973 RMK AO2 WSHFT 0834 UPB36E45FZRAE11B45SNB11E36 SLP086 P0006 60006 I1001 I3002 T10281028 56021
KRST 200849Z AUTO 06008G19KT 3SM -FZRA BR OVC002 M03/M03 A2974 RMK AO2 WSHFT 0834 UPB36E45FZRAE11B45SNB11E36 P0006 I1001
KRST 200846Z AUTO 05012KT 2SM FZRA BR OVC002 M03/M03 A2972 RMK AO2 UPB36E45FZRAE11B45SNB11E36 P0006 I1001 T10281033
KRST 200841Z AUTO 07012G19KT 1 1/2SM UP BR OVC002 M03/M03 A2971 RMK AO2 UPB36FZRAE11SNB11E36 PRESFR P0005 I1001 T10281033
KRST 200831Z AUTO 08004KT 2SM -SN BR OVC002 M04/M04 A2979 RMK AO2 FZRAE11SNB11 P0001 I1000 T10391039
KRST 200817Z AUTO 07007KT 1 3/4SM -SN BR OVC002 M04/M04 A2976 RMK AO2 FZRAE11SNB11 P0000 I1000 T10441044
KRST 200754Z AUTO 03008KT 1 1/2SM -FZRA BR OVC002 M04/M05 A2975 RMK AO2 UPB19E39FZRAB39SNE19 SLP092 P0000 I1001 T10441050
KRST 200739Z AUTO 03006KT 1 1/2SM R31/6000VP6000FT -FZRA BR OVC002 M04/M04 A2977 RMK AO2 UPB19E39FZRAB39SNE19 P0000 I1001 T10441044
KRST 200734Z AUTO 02008KT 1 1/4SM R31/6000VP6000FT UP BR OVC002 M04/M04 A2976 RMK AO2 UPB19SNE19 P0000 I1000 T10441044
KRST 200654Z AUTO 02009KT 1 1/2SM -SN BR OVC002 M04/M04 A2978 RMK AO2 SLP102 P0000 T10441044
KRST 200601Z AUTO 01009KT 1 3/4SM -SN BR OVC002 M04/M04 A2980 RMK AO2 P0000 T10441044
KRST 200554Z AUTO 02009KT 2SM -SN BR OVC002 M04/M04 A2980 RMK AO2 SLP108 P0000 60000 I6002 T10441044 11033 21044 400221044 51003
KRST 200523Z AUTO 02010KT 1 3/4SM -SN BR OVC002 M04/M04 A2980 RMK AO2 P0000 T10441044
KRST 200454Z AUTO 01008KT 2SM -SN BR OVC002 M04/M04 A2981 RMK AO2 SLP113 P0000 T10441044
KRST 200406Z 02011KT 1 3/4SM -SN BR OVC002 M04/M05 A2979 RMK AO2 TWR VIS 2 1/2 P0000 T10441050
KRST 200354Z 02011KT 2SM -SN BR OVC002 M04/M05 A2979 RMK AO2 TWR VIS 2 1/2 SLP105 P0000 T10441050